Pagina principale
METAR-TAF:

METAR-TAF

Aeroporti :

Mont-De-Marsan, Francia

latitudine: 43-55N, longitudine: 000-30W, altezza: 62 m

Osservazione

Il bollettino è stato emesso 27 minuti fa, alle 03:00 UTC
Vento calmo
Temperature 6°C
Umidità 93%
Pressione 1030 hPa
Visibilità: 0750 m
nebbia

METAR: LFBM 240300Z AUTO 00000KT 0750 R27/0900U FG VV/// 06/05 Q1030 BECMG 0300 FG

Ora: 04:27 (03:27 UTC)

Previsione

Il bollettino è stato emesso 1 ora e 27 minuti fa, alle 02:00 UTC
Previsione valida dal 24 alle 03 UTC al 25 alle 03 UTC
Vento 2 kt da direzioni variabili
Visibilità: 0300 m
nebbia
Evoluzione graduale
dal 24 alle 10 UTC al 24 alle 12 UTC
Vento 5 kt da ovest
Visibilità 10 km o più
Nubi sparse ad un'altezza di 2000 ft
Evoluzione graduale
dal 24 alle 21 UTC al 24 alle 23 UTC
Visibilità: 4000 m
Nuvoloso ad un'altezza di 500 ft
foschia

TAF: LFBM 240200Z 2403/2503 VRB02KT 0300 FG VV/// BECMG 2410/2412 27005KT 9999 NSW SCT020 BECMG 2421/2423 4000 BR BKN005

Osservazioni e previsioni meteorologiche di più di 4000 aeroporti (messaggi METAR e TAF).

Le stazioni disponibili sono rappresentate dai dischi gialli e rossi sulla carta.

Puntare il mouse per vedere il nome della stazione.

Clicca sopra per visualizzare le osservazioni e previsioni meteorologiche.

Per cambiare la mappa : fare clic sui pulsanti verdi con una croce nera per ingrandire, il pulsante verde con un trattino per diminuire, o sulla freccia verde per le mappe adiacenti.


METAR-TAF: